Time;durP1;ratioP1;P1;durP2;ratioP2;P2;SDS_P1;SDS_P2;PMS_P1;PMS_P2;Temp;Humidity;BMP_temperature;BMP_pressure;BME280_temperature;BME280_humidity;BME280_pressure;Samples;Min_cycle;Max_cycle;Signal;HPM_P1;HPM_P2
2021/12/27 00:00:32;;;;;;;74.10;35.05;;;8.10;99.90;;;;;;5017940;28;20474;-85
2021/12/27 00:03:00;;;;;;;70.75;32.83;;;8.00;99.90;;;;;;5018842;28;20050;-85
2021/12/27 00:05:28;;;;;;;22.48;13.63;;;8.00;99.90;;;;;;5018994;28;20022;-85
2021/12/27 00:07:54;;;;;;;46.28;23.67;;;8.00;99.90;;;;;;5018554;28;20511;-82
2021/12/27 00:10:22;;;;;;;91.95;42.03;;;8.00;99.90;;;;;;5018486;28;20367;-82
2021/12/27 00:12:48;;;;;;;31.30;17.58;;;8.00;99.90;;;;;;5018513;28;20033;-81
2021/12/27 00:15:14;;;;;;;74.45;33.20;;;7.90;99.90;;;;;;5017138;28;20053;-81
2021/12/27 00:17:42;;;;;;;140.95;59.55;;;7.90;99.90;;;;;;5018757;28;20037;-81
2021/12/27 00:20:11;;;;;;;234.18;93.35;;;7.90;99.90;;;;;;5018498;28;20106;-81
2021/12/27 00:22:37;;;;;;;177.75;67.38;;;7.90;99.90;;;;;;5050197;28;20054;-81
2021/12/27 00:25:04;;;;;;;38.28;21.48;;;7.90;99.90;;;;;;5018206;28;20018;-82
2021/12/27 00:27:30;;;;;;;140.07;57.53;;;7.90;99.90;;;;;;5016942;28;20037;-82
2021/12/27 00:29:56;;;;;;;19.85;13.05;;;7.90;99.90;;;;;;5017328;28;20498;-83
2021/12/27 00:32:22;;;;;;;51.92;22.25;;;7.90;99.90;;;;;;5017124;28;20026;-82
2021/12/27 00:34:48;;;;;;;335.73;127.25;;;7.90;99.90;;;;;;5018130;28;20050;-82
2021/12/27 00:37:14;;;;;;;196.20;76.82;;;7.90;99.90;;;;;;5017100;28;20454;-81
2021/12/27 00:39:39;;;;;;;96.22;38.38;;;7.90;99.90;;;;;;5018347;28;20022;-82
2021/12/27 00:42:06;;;;;;;303.60;118.15;;;7.90;99.90;;;;;;5018246;28;20056;-82
2021/12/27 00:44:32;;;;;;;262.23;96.55;;;7.90;99.90;;;;;;5018060;28;20026;-81
2021/12/27 00:46:58;;;;;;;285.20;107.32;;;7.90;99.90;;;;;;5018244;28;20030;-82
2021/12/27 00:49:24;;;;;;;328.10;123.22;;;7.90;99.90;;;;;;5017990;28;20254;-82
2021/12/27 00:51:50;;;;;;;136.40;55.70;;;7.90;99.90;;;;;;5016835;28;20069;-82
2021/12/27 00:54:16;;;;;;;74.57;29.95;;;7.90;99.90;;;;;;5016578;28;20022;-81
2021/12/27 00:56:43;;;;;;;264.23;99.20;;;7.90;99.90;;;;;;5016317;28;20026;-82
2021/12/27 00:59:09;;;;;;;47.65;23.48;;;7.90;99.90;;;;;;5018162;28;20018;-82
2021/12/27 01:01:35;;;;;;;39.80;19.95;;;7.90;99.90;;;;;;5016554;28;20034;-81
2021/12/27 01:04:01;;;;;;;153.63;65.22;;;7.90;99.90;;;;;;5017576;28;20045;-81
2021/12/27 01:06:27;;;;;;;120.28;46.20;;;7.90;99.90;;;;;;5016681;28;20026;-81
2021/12/27 01:08:53;;;;;;;104.50;46.88;;;7.90;99.90;;;;;;5017470;28;20126;-81
2021/12/27 01:11:25;;;;;;;48.92;22.90;;;7.90;99.90;;;;;;5017546;28;20026;-81
2021/12/27 01:14:13;;;;;;;103.82;49.15;;;7.90;99.90;;;;;;5017442;28;20030;-82
2021/12/27 01:16:41;;;;;;;185.98;93.38;;;7.90;99.90;;;;;;5016321;28;20026;-81
2021/12/27 01:19:07;;;;;;;46.13;27.52;;;7.90;99.90;;;;;;5015516;28;20056;-81
2021/12/27 01:21:34;;;;;;;15.23;8.82;;;7.90;99.90;;;;;;5017922;28;20038;-82
2021/12/27 01:24:00;;;;;;;17.75;11.85;;;8.00;99.90;;;;;;5017512;28;20433;-82
2021/12/27 01:26:27;;;;;;;13.65;11.02;;;7.90;99.90;;;;;;5017130;28;20030;-81
2021/12/27 01:28:56;;;;;;;15.63;12.68;;;8.00;99.90;;;;;;5016122;28;20088;-80
2021/12/27 01:31:22;;;;;;;18.85;12.75;;;8.00;99.90;;;;;;5017460;28;20057;-81
2021/12/27 01:33:48;;;;;;;14.00;9.85;;;8.00;99.90;;;;;;5017273;28;20018;-81
2021/12/27 01:36:15;;;;;;;12.80;9.13;;;8.00;99.90;;;;;;5016054;28;20037;-82
2021/12/27 01:38:41;;;;;;;9.50;7.28;;;8.00;99.90;;;;;;5017288;28;20045;-82
2021/12/27 01:41:10;;;;;;;10.68;7.57;;;8.00;99.90;;;;;;5017252;28;20498;-82
2021/12/27 01:43:38;;;;;;;15.32;11.20;;;8.10;99.90;;;;;;5017184;28;20026;-82
2021/12/27 01:46:10;;;;;;;9.45;7.85;;;8.10;99.90;;;;;;5016041;28;20055;-83
2021/12/27 01:48:41;;;;;;;9.57;7.40;;;8.10;99.90;;;;;;5016047;28;20018;-83
2021/12/27 01:51:10;;;;;;;8.88;6.05;;;8.10;99.90;;;;;;5016076;28;20026;-83
2021/12/27 01:53:39;;;;;;;9.02;6.68;;;8.20;99.90;;;;;;5017710;28;20026;-83
2021/12/27 01:56:07;;;;;;;7.43;6.03;;;8.20;99.90;;;;;;5016925;28;20060;-83
2021/12/27 01:58:34;;;;;;;9.02;6.35;;;8.30;99.90;;;;;;5017310;28;20022;-82
2021/12/27 02:01:02;;;;;;;8.48;6.30;;;8.30;99.90;;;;;;5017095;28;20461;-82
2021/12/27 02:03:31;;;;;;;9.82;6.03;;;8.40;99.90;;;;;;5015913;28;20053;-82
2021/12/27 02:05:58;;;;;;;8.55;6.05;;;8.40;99.90;;;;;;5017164;28;20089;-82
2021/12/27 02:08:24;;;;;;;6.30;4.90;;;8.40;99.90;;;;;;5015749;28;20045;-83
2021/12/27 02:10:50;;;;;;;5.30;4.80;;;8.50;99.90;;;;;;5016933;28;20030;-83
2021/12/27 02:13:17;;;;;;;5.05;3.97;;;8.50;99.90;;;;;;5016039;28;20026;-82
2021/12/27 02:15:44;;;;;;;12.05;5.15;;;8.60;99.90;;;;;;5016979;28;20032;-82
2021/12/27 02:18:10;;;;;;;6.63;3.88;;;8.70;99.90;;;;;;5015810;28;20022;-82
2021/12/27 02:20:37;;;;;;;6.20;3.97;;;8.80;99.90;;;;;;5016878;28;20029;-82
2021/12/27 02:23:10;;;;;;;8.48;3.42;;;8.90;99.90;;;;;;5017390;28;20049;-82
2021/12/27 02:25:36;;;;;;;8.10;3.47;;;8.90;99.90;;;;;;5015782;28;20080;-83
2021/12/27 02:28:05;;;;;;;5.90;3.75;;;9.00;99.90;;;;;;5016946;28;20021;-82
2021/12/27 02:30:31;;;;;;;3.55;3.05;;;9.10;99.90;;;;;;5017246;28;20148;-84
2021/12/27 02:33:00;;;;;;;4.57;3.25;;;9.20;99.90;;;;;;5019304;28;20022;-83
2021/12/27 02:35:32;;;;;;;3.53;3.03;;;9.20;99.90;;;;;;5019029;28;20482;-84
2021/12/27 02:38:00;;;;;;;5.20;3.30;;;9.40;99.90;;;;;;5019247;28;20026;-83
2021/12/27 02:40:28;;;;;;;4.97;3.17;;;9.50;99.90;;;;;;5019006;28;20025;-83
2021/12/27 02:42:54;;;;;;;4.07;3.40;;;9.60;99.90;;;;;;5020687;28;20054;-83
2021/12/27 02:45:20;;;;;;;4.65;3.35;;;9.70;99.90;;;;;;5019564;28;20037;-83
2021/12/27 02:47:46;;;;;;;6.47;3.40;;;9.80;99.90;;;;;;5020827;28;20049;-85
2021/12/27 02:50:12;;;;;;;3.65;3.22;;;9.90;99.90;;;;;;5019661;28;20041;-84
2021/12/27 02:52:38;;;;;;;4.38;3.35;;;10.00;99.90;;;;;;5019548;28;20564;-85
2021/12/27 02:55:04;;;;;;;3.17;2.80;;;10.10;99.90;;;;;;5020161;28;20042;-85
2021/12/27 02:57:30;;;;;;;3.25;2.92;;;10.20;99.90;;;;;;5019432;28;20019;-84
2021/12/27 02:59:57;;;;;;;5.70;3.03;;;10.20;99.90;;;;;;5020402;28;20029;-84
2021/12/27 03:02:23;;;;;;;4.22;3.47;;;10.30;99.90;;;;;;5032036;28;20116;-83
2021/12/27 03:04:49;;;;;;;7.53;3.30;;;10.30;99.90;;;;;;5039957;28;20099;-83
2021/12/27 03:07:15;;;;;;;4.72;3.45;;;10.30;99.90;;;;;;5039672;28;20104;-83
2021/12/27 03:09:41;;;;;;;5.10;2.97;;;10.30;99.90;;;;;;5039575;28;20045;-84
2021/12/27 03:12:11;;;;;;;3.45;2.83;;;10.40;99.90;;;;;;5039895;28;20837;-83
2021/12/27 03:14:37;;;;;;;9.13;3.90;;;10.40;99.90;;;;;;5038459;28;20113;-83
2021/12/27 03:17:04;;;;;;;3.83;3.25;;;10.40;99.90;;;;;;5040195;28;20143;-83
2021/12/27 03:19:29;;;;;;;4.22;2.90;;;10.50;99.90;;;;;;5030577;28;20153;-83
2021/12/27 03:21:55;;;;;;;3.55;3.25;;;10.50;99.90;;;;;;5020018;28;20046;-83
2021/12/27 03:24:22;;;;;;;4.90;2.88;;;10.50;99.90;;;;;;5018431;28;20030;-84
2021/12/27 03:26:49;;;;;;;3.67;3.03;;;10.50;99.90;;;;;;5019376;28;20041;-83
2021/12/27 03:29:15;;;;;;;4.30;3.35;;;10.50;99.90;;;;;;5019843;28;20030;-84
2021/12/27 03:31:41;;;;;;;4.72;3.50;;;10.40;99.90;;;;;;5018423;28;20044;-85
2021/12/27 03:34:07;;;;;;;4.45;3.25;;;10.50;99.90;;;;;;5019069;28;20026;-85
2021/12/27 03:36:38;;;;;;;3.85;2.90;;;10.50;99.90;;;;;;5019575;28;20026;-84
2021/12/27 03:39:07;;;;;;;6.30;3.00;;;10.50;99.90;;;;;;5020273;28;20018;-84
2021/12/27 03:41:34;;;;;;;5.47;3.00;;;10.50;99.90;;;;;;5018321;28;20412;-84
2021/12/27 03:44:00;;;;;;;4.45;3.15;;;10.50;99.90;;;;;;5018618;28;20065;-84
2021/12/27 03:46:25;;;;;;;6.30;2.92;;;10.50;99.90;;;;;;5018776;28;20038;-84
2021/12/27 03:48:51;;;;;;;3.72;3.42;;;10.50;99.90;;;;;;5019455;28;20018;-83
2021/12/27 03:51:17;;;;;;;3.40;3.10;;;10.50;99.90;;;;;;5019259;28;20029;-84
2021/12/27 03:53:43;;;;;;;9.60;4.38;;;10.50;99.90;;;;;;5018102;28;20041;-82
2021/12/27 03:56:09;;;;;;;4.28;3.63;;;10.50;99.90;;;;;;5018732;28;20552;-82
2021/12/27 03:58:48;;;;;;;3.92;3.42;;;10.40;99.90;;;;;;5018987;28;20018;-81
2021/12/27 04:01:16;;;;;;;5.68;3.67;;;10.40;99.90;;;;;;5017416;28;20033;-82
2021/12/27 04:03:51;;;;;;;7.50;3.70;;;10.40;99.90;;;;;;5017599;28;20025;-82
2021/12/27 04:06:18;;;;;;;8.85;3.67;;;10.30;99.90;;;;;;5017505;28;20026;-82
2021/12/27 04:08:44;;;;;;;5.93;3.53;;;10.30;99.90;;;;;;5018711;28;20096;-81
2021/12/27 04:11:10;;;;;;;4.97;3.45;;;10.20;99.90;;;;;;5018635;28;20859;-81
2021/12/27 04:13:36;;;;;;;7.07;3.78;;;10.10;99.90;;;;;;5018639;28;20015;-81
2021/12/27 04:16:03;;;;;;;6.28;4.13;;;10.10;99.90;;;;;;5017442;28;20022;-80
2021/12/27 04:18:28;;;;;;;6.63;4.00;;;10.00;99.90;;;;;;5017427;28;20560;-80
2021/12/27 04:20:54;;;;;;;4.35;3.75;;;10.00;99.90;;;;;;5018614;28;20030;-81
2021/12/27 04:23:20;;;;;;;7.03;4.40;;;9.90;99.90;;;;;;5018600;28;20064;-82
2021/12/27 04:25:46;;;;;;;4.50;3.47;;;9.90;99.90;;;;;;5016266;28;20027;-81
2021/12/27 04:28:12;;;;;;;5.03;4.43;;;9.80;99.90;;;;;;5049528;28;20038;-82
2021/12/27 04:30:39;;;;;;;7.72;4.18;;;9.80;99.90;;;;;;5017843;28;20018;-81
2021/12/27 04:33:05;;;;;;;5.50;3.85;;;9.80;99.90;;;;;;5017941;28;20037;-82
2021/12/27 04:35:31;;;;;;;6.75;3.92;;;9.80;99.90;;;;;;5017456;28;20014;-85
2021/12/27 04:37:57;;;;;;;5.65;4.05;;;9.80;99.90;;;;;;5017751;28;20391;-83
2021/12/27 04:40:25;;;;;;;5.07;4.10;;;9.80;99.90;;;;;;5014778;28;20022;-83
2021/12/27 04:42:56;;;;;;;7.10;3.92;;;9.80;99.90;;;;;;5016204;28;20014;-83
2021/12/27 04:45:22;;;;;;;4.28;3.65;;;9.80;99.90;;;;;;5017708;28;20041;-83
2021/12/27 04:47:48;;;;;;;5.22;4.28;;;9.80;99.90;;;;;;5015139;28;20038;-82
2021/12/27 04:50:14;;;;;;;5.20;4.07;;;9.80;99.90;;;;;;5013840;28;20080;-83
2021/12/27 04:52:40;;;;;;;6.15;4.43;;;9.80;99.90;;;;;;5040011;28;20022;-82
2021/12/27 04:55:07;;;;;;;7.60;4.80;;;9.90;99.90;;;;;;5018505;28;20033;-84
2021/12/27 04:57:32;;;;;;;8.27;4.90;;;9.90;99.90;;;;;;5017459;28;20032;-83
2021/12/27 04:59:58;;;;;;;7.20;4.55;;;9.90;99.90;;;;;;5035397;28;20105;-84
2021/12/27 05:02:24;;;;;;;5.78;4.53;;;9.90;99.90;;;;;;5010552;28;20034;-84
2021/12/27 05:04:50;;;;;;;9.02;4.72;;;9.90;99.90;;;;;;5016477;28;20064;-82
2021/12/27 05:07:16;;;;;;;7.90;6.20;;;9.90;99.90;;;;;;5050241;28;20060;-84
2021/12/27 05:09:41;;;;;;;10.85;4.85;;;9.90;99.90;;;;;;5019209;28;20119;-83
2021/12/27 05:12:07;;;;;;;6.30;5.47;;;9.90;99.90;;;;;;5018069;28;20498;-84
2021/12/27 05:14:33;;;;;;;226.93;116.05;;;9.90;99.90;;;;;;5016509;28;20026;-81
2021/12/27 05:16:59;;;;;;;86.82;44.67;;;9.90;99.90;;;;;;5017641;28;20026;-82
2021/12/27 05:19:24;;;;;;;30.00;16.98;;;9.90;99.90;;;;;;5017599;28;20026;-81
2021/12/27 05:21:50;;;;;;;152.13;100.20;;;9.90;99.90;;;;;;5017576;28;20045;-79
2021/12/27 05:24:16;;;;;;;309.95;215.63;;;9.90;99.90;;;;;;5017714;28;20061;-79
2021/12/27 05:26:42;;;;;;;17.58;8.85;;;9.90;99.90;;;;;;5017039;28;20030;-79
2021/12/27 05:29:08;;;;;;;78.10;69.47;;;9.90;99.90;;;;;;5017708;28;20048;-79
2021/12/27 05:31:33;;;;;;;35.50;25.30;;;9.90;99.90;;;;;;5017495;28;20050;-78
2021/12/27 05:33:59;;;;;;;11.95;7.78;;;9.90;99.90;;;;;;5017383;28;20018;-78
2021/12/27 05:36:25;;;;;;;8.27;4.88;;;9.90;99.90;;;;;;5017009;28;20204;-79
2021/12/27 05:38:50;;;;;;;66.57;26.67;;;9.80;99.90;;;;;;5006262;28;20528;-78
2021/12/27 05:41:16;;;;;;;125.93;48.63;;;9.80;99.90;;;;;;5016974;28;20065;-79
2021/12/27 05:43:42;;;;;;;469.85;208.38;;;9.80;99.90;;;;;;5015953;28;20490;-78
2021/12/27 05:46:08;;;;;;;155.18;53.97;;;9.80;99.90;;;;;;5017256;28;20109;-78
2021/12/27 05:48:33;;;;;;;134.30;47.95;;;9.80;99.90;;;;;;5017412;28;20022;-79
2021/12/27 05:50:59;;;;;;;38.72;17.58;;;9.80;99.90;;;;;;5017114;28;20030;-78
2021/12/27 05:53:25;;;;;;;52.05;39.30;;;9.80;99.90;;;;;;5017497;28;20026;-78
2021/12/27 05:55:51;;;;;;;13.55;7.40;;;9.80;99.90;;;;;;5016810;28;20029;-79
2021/12/27 05:58:17;;;;;;;10.18;6.90;;;9.80;99.90;;;;;;5017373;28;20105;-78
2021/12/27 06:00:42;;;;;;;15.07;8.63;;;9.80;99.90;;;;;;5016922;28;20018;-79
2021/12/27 06:03:08;;;;;;;9.07;6.53;;;9.80;99.90;;;;;;5017128;28;20022;-78
2021/12/27 06:05:34;;;;;;;17.10;11.93;;;9.80;99.90;;;;;;5018488;28;20124;-78
2021/12/27 06:08:01;;;;;;;9.73;7.35;;;9.90;99.90;;;;;;5019605;28;20053;-79
2021/12/27 06:10:27;;;;;;;15.63;10.30;;;9.80;99.90;;;;;;5015151;28;20030;-79
2021/12/27 06:12:53;;;;;;;51.38;20.42;;;9.80;99.90;;;;;;5021005;28;20549;-79
2021/12/27 06:15:19;;;;;;;144.07;57.47;;;9.80;99.90;;;;;;5019606;28;20120;-79
2021/12/27 06:17:45;;;;;;;108.20;49.13;;;9.80;99.90;;;;;;5019708;28;20054;-79
2021/12/27 06:20:14;;;;;;;285.30;134.60;;;9.80;99.90;;;;;;5019319;28;20113;-78
2021/12/27 06:22:48;;;;;;;75.47;39.75;;;9.80;99.90;;;;;;5020911;28;20014;-78
2021/12/27 06:25:14;;;;;;;23.58;12.50;;;9.80;99.90;;;;;;5019014;28;20512;-78
2021/12/27 06:27:40;;;;;;;38.42;21.45;;;9.80;99.90;;;;;;5020711;28;20125;-78
2021/12/27 06:30:08;;;;;;;85.97;48.72;;;9.80;99.90;;;;;;5020761;28;20038;-79
2021/12/27 06:32:35;;;;;;;51.80;32.13;;;9.90;99.90;;;;;;5020777;28;20099;-78
2021/12/27 06:35:02;;;;;;;24.23;13.43;;;9.80;99.90;;;;;;5020302;28;20030;-77
2021/12/27 06:37:27;;;;;;;38.45;23.42;;;9.90;99.90;;;;;;5020849;28;20028;-78
2021/12/27 06:39:53;;;;;;;16.98;11.25;;;9.90;99.90;;;;;;5020246;28;20100;-78
2021/12/27 06:42:19;;;;;;;20.73;11.30;;;10.00;99.90;;;;;;5019702;28;20021;-78
2021/12/27 06:44:45;;;;;;;36.70;21.55;;;10.00;99.90;;;;;;5020349;28;20040;-78
2021/12/27 06:47:10;;;;;;;41.35;23.58;;;10.00;99.90;;;;;;5020468;28;20508;-78
2021/12/27 06:49:37;;;;;;;54.75;34.50;;;10.00;99.90;;;;;;5020186;28;20390;-78
2021/12/27 06:52:03;;;;;;;27.85;14.52;;;10.00;99.90;;;;;;5020437;28;20457;-77
2021/12/27 06:54:29;;;;;;;25.63;12.98;;;10.00;99.90;;;;;;5018767;28;20533;-77
2021/12/27 06:56:59;;;;;;;34.63;22.40;;;10.00;99.90;;;;;;5019936;28;20022;-78
2021/12/27 06:59:28;;;;;;;18.58;11.82;;;10.10;99.90;;;;;;5020093;28;20033;-78
2021/12/27 07:01:55;;;;;;;15.35;9.65;;;10.10;99.90;;;;;;5020255;28;20041;-78
2021/12/27 07:04:20;;;;;;;23.08;10.57;;;10.20;99.90;;;;;;5020015;28;20037;-78
2021/12/27 07:06:46;;;;;;;25.35;15.93;;;10.20;99.90;;;;;;5018749;28;20030;-78
2021/12/27 07:09:13;;;;;;;35.22;10.98;;;10.20;99.90;;;;;;5018368;28;20054;-79
2021/12/27 07:11:41;;;;;;;15.05;9.85;;;10.20;99.90;;;;;;5018222;28;20025;-79
2021/12/27 07:14:07;;;;;;;18.92;9.07;;;10.30;99.90;;;;;;5015927;28;20030;-76
2021/12/27 07:16:33;;;;;;;10.07;6.28;;;10.40;99.90;;;;;;5018900;28;20041;-77
2021/12/27 07:18:58;;;;;;;11.50;6.88;;;10.30;99.90;;;;;;5018080;28;20029;-76
2021/12/27 07:21:24;;;;;;;11.38;8.63;;;10.30;99.90;;;;;;5019717;28;20068;-77
2021/12/27 07:23:50;;;;;;;13.15;6.25;;;10.30;99.90;;;;;;5019593;28;20060;-77
2021/12/27 07:26:16;;;;;;;9.90;5.85;;;10.20;99.90;;;;;;5019387;28;20034;-77
2021/12/27 07:28:41;;;;;;;13.77;4.72;;;10.20;99.90;;;;;;5019370;28;20021;-77
2021/12/27 07:31:08;;;;;;;6.57;5.07;;;10.10;99.90;;;;;;5018279;28;20052;-77
2021/12/27 07:33:34;;;;;;;7.97;5.45;;;10.10;99.90;;;;;;5019454;28;20057;-76
2021/12/27 07:36:00;;;;;;;9.77;7.38;;;10.20;99.90;;;;;;5019261;28;20022;-77
2021/12/27 07:38:26;;;;;;;8.52;4.63;;;10.20;99.90;;;;;;5019189;28;20026;-76
2021/12/27 07:40:51;;;;;;;6.38;5.07;;;10.20;99.90;;;;;;5019126;28;20044;-77
2021/12/27 07:43:17;;;;;;;6.90;4.55;;;10.20;99.90;;;;;;5019181;28;20030;-77
2021/12/27 07:45:43;;;;;;;5.22;4.53;;;10.20;99.90;;;;;;5018121;28;20556;-77
2021/12/27 07:48:10;;;;;;;6.65;4.70;;;10.20;99.90;;;;;;5019114;28;20036;-77
2021/12/27 07:50:36;;;;;;;6.20;4.88;;;10.20;99.90;;;;;;5019205;28;20088;-76
2021/12/27 07:53:04;;;;;;;11.90;4.68;;;10.20;99.90;;;;;;5017818;28;20054;-77
2021/12/27 07:55:30;;;;;;;11.68;4.50;;;10.20;99.90;;;;;;5018774;28;20386;-77
2021/12/27 07:57:56;;;;;;;8.32;3.92;;;10.20;99.90;;;;;;5017505;28;20034;-77
2021/12/27 08:00:23;;;;;;;66.28;41.40;;;10.20;99.90;;;;;;5019316;28;20418;-77
2021/12/27 08:02:49;;;;;;;5.93;3.90;;;10.20;99.90;;;;;;5018819;28;20482;-77
2021/12/27 08:05:15;;;;;;;8.07;3.35;;;10.20;99.90;;;;;;5017589;28;20038;-77
2021/12/27 08:07:44;;;;;;;8.30;3.67;;;10.20;99.90;;;;;;5018696;28;20057;-77
2021/12/27 08:10:12;;;;;;;5.53;3.22;;;10.30;99.90;;;;;;5018688;28;20025;-77
2021/12/27 08:12:38;;;;;;;8.80;3.90;;;10.30;99.90;;;;;;5017284;28;20041;-78
2021/12/27 08:15:05;;;;;;;4.30;3.28;;;10.30;99.90;;;;;;5017325;28;20113;-77
2021/12/27 08:17:31;;;;;;;8.60;3.40;;;10.40;99.90;;;;;;5017169;28;20026;-78
2021/12/27 08:19:57;;;;;;;6.85;4.22;;;10.40;99.90;;;;;;5018578;28;20022;-78
2021/12/27 08:22:23;;;;;;;7.35;3.50;;;10.40;99.90;;;;;;5018625;28;20028;-77
2021/12/27 08:24:51;;;;;;;3.47;2.92;;;10.40;99.90;;;;;;5017602;28;20068;-78
2021/12/27 08:27:20;;;;;;;7.30;3.47;;;10.40;99.90;;;;;;5017474;28;20605;-78
2021/12/27 08:29:46;;;;;;;6.53;3.38;;;10.30;99.90;;;;;;5018243;28;20018;-78
2021/12/27 08:32:12;;;;;;;7.72;3.63;;;10.40;99.90;;;;;;5016999;28;20575;-78
2021/12/27 08:34:38;;;;;;;5.13;3.38;;;10.30;99.90;;;;;;5016967;28;20033;-78
2021/12/27 08:37:04;;;;;;;4.75;3.75;;;10.40;99.90;;;;;;5018466;28;20022;-77
2021/12/27 08:39:30;;;;;;;7.30;3.47;;;10.40;99.90;;;;;;5017134;28;20022;-77
2021/12/27 08:41:56;;;;;;;6.45;3.50;;;10.40;99.90;;;;;;5016763;28;20431;-77
2021/12/27 08:44:22;;;;;;;5.47;3.47;;;10.40;99.90;;;;;;5018262;28;20022;-77
2021/12/27 08:46:49;;;;;;;5.95;3.42;;;10.30;99.90;;;;;;5018073;28;20422;-78
2021/12/27 08:49:14;;;;;;;7.60;3.25;;;10.40;99.90;;;;;;5016712;28;20030;-77
2021/12/27 08:51:40;;;;;;;7.82;4.28;;;10.40;99.90;;;;;;5017885;28;20049;-78
2021/12/27 08:54:06;;;;;;;6.68;3.40;;;10.40;99.90;;;;;;5018026;28;20057;-79
2021/12/27 08:56:32;;;;;;;5.57;3.50;;;10.40;99.90;;;;;;5017256;28;20045;-77
2021/12/27 08:58:58;;;;;;;6.82;3.75;;;10.40;99.90;;;;;;5017865;28;20037;-77
2021/12/27 09:01:24;;;;;;;9.85;3.92;;;10.50;99.90;;;;;;5017608;28;20030;-77
2021/12/27 09:03:50;;;;;;;9.07;4.78;;;10.50;99.90;;;;;;5016506;28;20026;-78
2021/12/27 09:06:16;;;;;;;6.68;3.58;;;10.60;99.90;;;;;;5017691;28;20438;-78
2021/12/27 09:08:43;;;;;;;4.50;3.42;;;10.60;99.90;;;;;;5017535;28;20046;-78
2021/12/27 09:11:09;;;;;;;4.78;3.00;;;10.60;99.90;;;;;;5017451;28;20109;-79
2021/12/27 09:13:38;;;;;;;6.05;3.00;;;10.60;99.90;;;;;;5016995;28;20025;-79
2021/12/27 09:16:05;;;;;;;7.60;3.33;;;10.60;99.90;;;;;;5016599;28;20037;-79
2021/12/27 09:18:33;;;;;;;9.75;3.00;;;10.60;99.90;;;;;;5015380;28;20109;-78
2021/12/27 09:21:00;;;;;;;10.85;3.58;;;10.70;99.90;;;;;;5003634;28;20026;-78
2021/12/27 09:23:26;;;;;;;7.25;2.97;;;10.70;99.90;;;;;;5016680;28;20022;-79
2021/12/27 09:25:52;;;;;;;4.90;3.45;;;10.70;99.90;;;;;;5016507;28;20030;-78
2021/12/27 09:28:18;;;;;;;5.38;3.08;;;10.80;99.90;;;;;;5016776;28;20029;-78
2021/12/27 09:30:45;;;;;;;9.02;4.15;;;10.80;99.90;;;;;;5017688;28;20030;-77
2021/12/27 09:33:11;;;;;;;4.82;3.13;;;10.80;99.90;;;;;;5017667;28;20032;-78
2021/12/27 09:35:37;;;;;;;7.38;3.63;;;10.90;99.90;;;;;;5017350;28;20113;-78
2021/12/27 09:38:03;;;;;;;9.43;3.40;;;11.00;99.90;;;;;;5017341;28;20054;-78
2021/12/27 09:40:29;;;;;;;5.03;2.75;;;11.00;99.90;;;;;;5016599;28;20390;-78
2021/12/27 09:42:55;;;;;;;7.20;3.22;;;11.10;99.90;;;;;;5015917;28;20029;-78
2021/12/27 09:45:22;;;;;;;79.70;27.90;;;11.10;99.90;;;;;;5017504;28;20037;-78
2021/12/27 09:47:50;;;;;;;11.15;3.83;;;11.10;99.90;;;;;;5017242;28;20097;-77
2021/12/27 09:50:41;;;;;;;238.82;85.43;;;11.10;99.90;;;;;;5017457;28;20030;-79
2021/12/27 09:53:07;;;;;;;41.25;14.73;;;11.10;99.90;;;;;;5015943;28;20038;-78
2021/12/27 09:55:34;;;;;;;13.02;5.15;;;11.20;99.90;;;;;;5016392;28;20458;-78
2021/12/27 09:58:00;;;;;;;16.65;6.18;;;11.30;99.90;;;;;;5016501;28;20022;-78
2021/12/27 10:00:27;;;;;;;34.85;13.88;;;11.30;99.90;;;;;;5017486;28;20412;-78
2021/12/27 10:02:54;;;;;;;15.80;5.25;;;11.40;99.90;;;;;;5015619;28;20030;-77
2021/12/27 10:05:22;;;;;;;13.23;3.53;;;11.50;99.90;;;;;;5016075;28;20029;-78
2021/12/27 10:07:48;;;;;;;12.25;3.67;;;11.50;99.90;;;;;;5015538;28;20077;-78
2021/12/27 10:10:14;;;;;;;10.77;4.35;;;11.60;99.90;;;;;;5016957;28;20026;-78
2021/12/27 10:12:40;;;;;;;10.68;3.67;;;11.60;99.90;;;;;;5015531;28;20034;-78
2021/12/27 10:15:10;;;;;;;15.95;3.75;;;11.60;99.90;;;;;;5016934;28;20026;-78
2021/12/27 10:17:37;;;;;;;53.00;22.30;;;11.70;99.90;;;;;;5015635;28;20018;-78
2021/12/27 10:20:12;;;;;;;9.73;3.42;;;11.70;99.90;;;;;;5015686;28;20022;-79
2021/12/27 10:22:56;;;;;;;11.30;3.50;;;11.80;99.90;;;;;;5016313;28;20033;-79
2021/12/27 10:25:26;;;;;;;6.78;4.22;;;12.00;99.90;;;;;;5048645;28;20134;-78
2021/12/27 10:27:54;;;;;;;5.97;3.47;;;12.10;99.90;;;;;;5016651;28;20057;-79
2021/12/27 10:30:26;;;;;;;11.05;3.63;;;12.10;99.90;;;;;;5007943;28;20045;-79
2021/12/27 10:33:06;;;;;;;15.05;6.55;;;12.10;99.90;;;;;;5007842;28;20037;-78
2021/12/27 10:35:46;;;;;;;8.60;3.58;;;12.20;99.90;;;;;;5011659;28;20033;-78
2021/12/27 10:38:40;;;;;;;7.68;3.42;;;12.20;99.90;;;;;;5012263;28;20029;-78
2021/12/27 10:41:10;;;;;;;13.60;3.83;;;12.30;99.90;;;;;;5016511;28;20482;-78
2021/12/27 10:43:39;;;;;;;;;;;12.40;99.90;;;;;;5017059;28;20460;-78
2021/12/27 10:46:10;;;;;;;8.18;3.65;;;12.50;99.90;;;;;;5016610;28;20377;-78
2021/12/27 10:48:54;;;;;;;18.67;4.38;;;12.50;99.90;;;;;;5016160;28;20026;-78
2021/12/27 10:51:20;;;;;;;25.70;12.35;;;12.60;99.90;;;;;;5017067;28;20026;-79
2021/12/27 10:53:52;;;;;;;25.85;10.00;;;12.70;99.90;;;;;;5051443;28;20025;-79
2021/12/27 10:56:21;;;;;;;18.98;5.22;;;12.80;99.90;;;;;;5051475;28;20053;-79
2021/12/27 10:58:59;;;;;;;15.65;4.00;;;12.90;99.90;;;;;;5019744;28;20032;-78
2021/12/27 11:01:27;;;;;;;13.98;3.85;;;12.90;99.90;;;;;;5017962;28;20029;-79
2021/12/27 11:03:55;;;;;;;11.68;3.40;;;13.00;99.90;;;;;;5018658;28;20026;-78
2021/12/27 11:06:26;;;;;;;15.18;4.55;;;13.00;99.90;;;;;;5018554;28;20109;-79
2021/12/27 11:08:53;;;;;;;14.13;4.25;;;13.00;99.90;;;;;;5019571;28;20052;-78
2021/12/27 11:11:21;;;;;;;11.68;4.07;;;13.00;99.90;;;;;;5001647;28;20022;-78
2021/12/27 11:13:49;;;;;;;14.70;6.03;;;13.10;99.90;;;;;;5026853;28;20029;-79
2021/12/27 11:16:15;;;;;;;24.13;4.85;;;13.10;99.90;;;;;;5039528;28;20497;-79
2021/12/27 11:18:41;;;;;;;14.45;3.30;;;13.10;99.90;;;;;;5020221;28;20109;-78
2021/12/27 11:21:16;;;;;;;14.73;4.43;;;13.20;99.90;;;;;;5019550;28;20032;-78
2021/12/27 11:23:43;;;;;;;13.27;4.65;;;13.30;99.90;;;;;;5018683;28;20026;-78
2021/12/27 11:26:12;;;;;;;16.98;4.38;;;13.40;99.90;;;;;;5019632;28;20092;-79
2021/12/27 11:28:43;;;;;;;20.35;4.13;;;13.40;99.90;;;;;;5018210;28;20046;-79
2021/12/27 11:31:23;;;;;;;14.65;4.25;;;13.50;99.90;;;;;;5018324;28;20041;-78
2021/12/27 11:33:59;;;;;;;21.95;4.97;;;13.40;99.90;;;;;;5017692;28;20034;-79
2021/12/27 11:36:32;;;;;;;15.73;3.80;;;13.40;99.90;;;;;;5016854;28;20026;-79
2021/12/27 11:39:17;;;;;;;20.48;5.55;;;13.40;99.90;;;;;;5017900;28;20029;-79
2021/12/27 11:41:43;;;;;;;17.13;4.97;;;13.40;99.90;;;;;;5018802;28;20026;-79
2021/12/27 11:44:17;;;;;;;22.55;4.30;;;13.40;99.90;;;;;;5019082;28;20022;-81
2021/12/27 11:46:49;;;;;;;20.70;4.85;;;13.50;99.90;;;;;;5017666;28;20025;-80
2021/12/27 11:49:38;;;;;;;17.90;4.78;;;13.50;99.90;;;;;;5018872;28;20022;-80
2021/12/27 11:52:29;;;;;;;20.65;4.88;;;13.50;99.90;;;;;;5017767;28;20026;-79
2021/12/27 11:55:10;;;;;;;21.60;5.30;;;13.50;99.90;;;;;;5018564;28;20040;-79
2021/12/27 11:57:45;;;;;;;18.02;4.38;;;13.40;99.90;;;;;;5017464;28;20494;-78
2021/12/27 12:00:16;;;;;;;24.83;6.75;;;13.40;99.90;;;;;;5019071;28;20037;-79
2021/12/27 12:02:43;;;;;;;21.40;5.65;;;13.50;99.90;;;;;;5020795;28;20048;-79
2021/12/27 12:05:09;;;;;;;34.58;7.43;;;13.50;99.90;;;;;;5038459;28;20485;-79
2021/12/27 12:07:35;;;;;;;25.85;6.40;;;13.60;99.90;;;;;;5038499;28;20034;-79
2021/12/27 12:10:05;;;;;;;30.33;6.22;;;13.60;99.90;;;;;;5038383;28;20480;-78
2021/12/27 12:12:33;;;;;;;25.60;7.47;;;13.70;99.90;;;;;;5038169;28;20022;-79
2021/12/27 12:15:01;;;;;;;28.17;6.75;;;13.80;99.90;;;;;;5038365;28;20275;-79
2021/12/27 12:17:48;;;;;;;38.88;8.60;;;13.80;99.90;;;;;;5038153;28;20021;-79
2021/12/27 12:20:36;;;;;;;21.63;6.55;;;13.90;99.90;;;;;;5023036;28;20084;-78
2021/12/27 12:23:09;;;;;;;29.52;6.80;;;13.90;99.90;;;;;;5017202;28;20487;-78
2021/12/27 12:25:36;;;;;;;28.38;6.68;;;14.10;99.90;;;;;;5018038;28;20525;-79
2021/12/27 12:28:06;;;;;;;29.23;7.25;;;14.30;99.90;;;;;;5015947;28;20100;-78
2021/12/27 12:30:35;;;;;;;34.58;6.97;;;14.40;99.90;;;;;;5018068;28;20033;-79
2021/12/27 12:33:12;;;;;;;29.13;6.03;;;14.60;99.90;;;;;;5018271;28;20034;-79
2021/12/27 12:35:48;;;;;;;27.17;6.45;;;14.70;99.90;;;;;;5018045;28;20065;-79
2021/12/27 12:38:22;;;;;;;29.52;7.45;;;14.70;99.90;;;;;;5018266;28;20018;-80
2021/12/27 12:41:11;;;;;;;28.10;6.55;;;14.80;99.90;;;;;;5017954;28;20088;-80
2021/12/27 12:43:45;;;;;;;34.67;6.85;;;14.70;99.90;;;;;;5013657;28;20053;-78
2021/12/27 12:46:19;;;;;;;41.95;7.25;;;14.70;99.90;;;;;;5016666;28;20037;-79